Graysville, Missouri
Current Conditions -  °F | °C
As of 4:55 PM on Wednesday 22 Oct 2014 (Local Time) from KTVK Reporting Station
Clear Clear  
Wind Chill: 63°   Ceiling: Unl
Heat Index: 63°   Visibility: 10mi
Dew Point: 45°   Wind: 10mph
Humidity: 52%   Direction: 120°ESE
Pressure: 30.16"   Gusts: NA
Location:  40.4961°N, 92.9907°W
Report Text: KTVK 222155Z AUTO 12009KT 10SM CLR 17/07 A3016 RMK AO2
Loading
Personal Weather Stations






























Interactive Weather Map New forecast layout! Learn more

10-Day Weather Forecast

Advertisements
Track Severe Weather on mobile